sensor_id;sensor_type;location;lat;lon;timestamp;temperature;humidity
18392;DHT22;9322;50.932;5.318;2023-09-07T00:01:32;20.30;1.40
18392;DHT22;9322;50.932;5.318;2023-09-07T00:03:58;20.30;1.40
18392;DHT22;9322;50.932;5.318;2023-09-07T00:06:24;20.40;1.40
18392;DHT22;9322;50.932;5.318;2023-09-07T00:08:51;20.40;1.40
18392;DHT22;9322;50.932;5.318;2023-09-07T00:11:17;20.40;1.40
18392;DHT22;9322;50.932;5.318;2023-09-07T00:13:42;20.40;1.40
18392;DHT22;9322;50.932;5.318;2023-09-07T00:16:08;20.40;1.40
18392;DHT22;9322;50.932;5.318;2023-09-07T00:18:34;20.30;1.40
18392;DHT22;9322;50.932;5.318;2023-09-07T00:21:00;20.30;1.40
18392;DHT22;9322;50.932;5.318;2023-09-07T00:23:26;20.30;1.40
18392;DHT22;9322;50.932;5.318;2023-09-07T00:25:52;20.20;1.40
18392;DHT22;9322;50.932;5.318;2023-09-07T00:28:18;20.10;1.40
18392;DHT22;9322;50.932;5.318;2023-09-07T00:30:44;20.10;1.40
18392;DHT22;9322;50.932;5.318;2023-09-07T00:33:10;20.00;1.40
18392;DHT22;9322;50.932;5.318;2023-09-07T00:35:36;19.90;1.40
18392;DHT22;9322;50.932;5.318;2023-09-07T00:38:02;19.70;1.40
18392;DHT22;9322;50.932;5.318;2023-09-07T00:40:28;19.60;1.40
18392;DHT22;9322;50.932;5.318;2023-09-07T00:42:54;19.60;1.40
18392;DHT22;9322;50.932;5.318;2023-09-07T00:45:20;19.50;1.40
18392;DHT22;9322;50.932;5.318;2023-09-07T00:47:46;19.30;1.40
18392;DHT22;9322;50.932;5.318;2023-09-07T00:50:12;19.20;1.40
18392;DHT22;9322;50.932;5.318;2023-09-07T00:52:45;19.20;1.40
18392;DHT22;9322;50.932;5.318;2023-09-07T00:55:12;19.10;1.40
18392;DHT22;9322;50.932;5.318;2023-09-07T00:57:38;19.00;1.40
18392;DHT22;9322;50.932;5.318;2023-09-07T01:00:06;19.00;1.40
18392;DHT22;9322;50.932;5.318;2023-09-07T01:02:33;18.90;1.40
18392;DHT22;9322;50.932;5.318;2023-09-07T01:04:59;18.80;1.40
18392;DHT22;9322;50.932;5.318;2023-09-07T01:07:35;18.80;1.40
18392;DHT22;9322;50.932;5.318;2023-09-07T01:10:02;18.70;1.40
18392;DHT22;9322;50.932;5.318;2023-09-07T01:12:28;18.70;1.40
18392;DHT22;9322;50.932;5.318;2023-09-07T01:14:53;18.70;1.40
18392;DHT22;9322;50.932;5.318;2023-09-07T01:17:20;18.60;1.40
18392;DHT22;9322;50.932;5.318;2023-09-07T01:19:50;18.60;1.40
18392;DHT22;9322;50.932;5.318;2023-09-07T01:22:21;18.50;1.40
18392;DHT22;9322;50.932;5.318;2023-09-07T01:24:50;18.50;1.40
18392;DHT22;9322;50.932;5.318;2023-09-07T01:27:20;18.40;1.40
18392;DHT22;9322;50.932;5.318;2023-09-07T01:29:46;18.40;1.40
18392;DHT22;9322;50.932;5.318;2023-09-07T01:32:11;18.40;1.40
18392;DHT22;9322;50.932;5.318;2023-09-07T01:34:39;18.30;1.40
18392;DHT22;9322;50.932;5.318;2023-09-07T01:37:04;18.30;1.40
18392;DHT22;9322;50.932;5.318;2023-09-07T01:39:30;18.20;1.40
18392;DHT22;9322;50.932;5.318;2023-09-07T01:41:56;18.20;1.40
18392;DHT22;9322;50.932;5.318;2023-09-07T01:44:21;18.10;1.40
18392;DHT22;9322;50.932;5.318;2023-09-07T01:46:47;18.20;1.40
18392;DHT22;9322;50.932;5.318;2023-09-07T01:49:13;18.20;1.40
18392;DHT22;9322;50.932;5.318;2023-09-07T01:51:38;18.10;1.40
18392;DHT22;9322;50.932;5.318;2023-09-07T01:54:04;18.20;1.40
18392;DHT22;9322;50.932;5.318;2023-09-07T01:56:30;18.10;1.40
18392;DHT22;9322;50.932;5.318;2023-09-07T01:58:56;18.10;1.40
18392;DHT22;9322;50.932;5.318;2023-09-07T02:01:23;18.00;1.40
18392;DHT22;9322;50.932;5.318;2023-09-07T02:03:49;17.90;1.40
18392;DHT22;9322;50.932;5.318;2023-09-07T02:06:15;17.90;1.40
18392;DHT22;9322;50.932;5.318;2023-09-07T02:08:41;18.00;1.40
18392;DHT22;9322;50.932;5.318;2023-09-07T02:11:06;18.00;1.40
18392;DHT22;9322;50.932;5.318;2023-09-07T02:13:32;18.10;1.40
18392;DHT22;9322;50.932;5.318;2023-09-07T02:15:58;18.20;1.40
18392;DHT22;9322;50.932;5.318;2023-09-07T02:18:24;18.20;1.40
18392;DHT22;9322;50.932;5.318;2023-09-07T02:20:50;18.30;1.40
18392;DHT22;9322;50.932;5.318;2023-09-07T02:23:16;18.30;1.40
18392;DHT22;9322;50.932;5.318;2023-09-07T02:25:41;18.30;1.40
18392;DHT22;9322;50.932;5.318;2023-09-07T02:28:07;18.30;1.40
18392;DHT22;9322;50.932;5.318;2023-09-07T02:30:33;18.30;1.40
18392;DHT22;9322;50.932;5.318;2023-09-07T02:32:59;18.30;1.40
18392;DHT22;9322;50.932;5.318;2023-09-07T02:35:24;18.20;1.40
18392;DHT22;9322;50.932;5.318;2023-09-07T02:37:50;18.20;1.40
18392;DHT22;9322;50.932;5.318;2023-09-07T02:40:16;18.00;1.40
18392;DHT22;9322;50.932;5.318;2023-09-07T02:42:42;17.90;1.40
18392;DHT22;9322;50.932;5.318;2023-09-07T02:45:11;17.80;1.40
18392;DHT22;9322;50.932;5.318;2023-09-07T02:47:38;17.80;1.40
18392;DHT22;9322;50.932;5.318;2023-09-07T02:50:03;17.70;1.40
18392;DHT22;9322;50.932;5.318;2023-09-07T02:52:29;17.70;1.40
18392;DHT22;9322;50.932;5.318;2023-09-07T02:54:55;17.70;1.40
18392;DHT22;9322;50.932;5.318;2023-09-07T02:57:20;17.80;1.40
18392;DHT22;9322;50.932;5.318;2023-09-07T02:59:46;17.90;1.40
18392;DHT22;9322;50.932;5.318;2023-09-07T03:02:12;17.90;1.40
18392;DHT22;9322;50.932;5.318;2023-09-07T03:04:37;17.90;1.40
18392;DHT22;9322;50.932;5.318;2023-09-07T03:07:03;17.90;1.40
18392;DHT22;9322;50.932;5.318;2023-09-07T03:09:29;17.90;1.40
18392;DHT22;9322;50.932;5.318;2023-09-07T03:11:55;17.90;1.40
18392;DHT22;9322;50.932;5.318;2023-09-07T03:14:20;17.90;1.40
18392;DHT22;9322;50.932;5.318;2023-09-07T03:16:46;18.00;1.40
18392;DHT22;9322;50.932;5.318;2023-09-07T03:19:16;17.90;1.40
18392;DHT22;9322;50.932;5.318;2023-09-07T03:21:42;17.90;1.40
18392;DHT22;9322;50.932;5.318;2023-09-07T03:24:07;17.90;1.40
18392;DHT22;9322;50.932;5.318;2023-09-07T03:26:33;17.90;1.40
18392;DHT22;9322;50.932;5.318;2023-09-07T03:29:00;17.80;1.40
18392;DHT22;9322;50.932;5.318;2023-09-07T03:31:26;17.80;1.40
18392;DHT22;9322;50.932;5.318;2023-09-07T03:33:51;17.80;1.40
18392;DHT22;9322;50.932;5.318;2023-09-07T03:36:17;17.70;1.40
18392;DHT22;9322;50.932;5.318;2023-09-07T03:38:43;17.60;1.40
18392;DHT22;9322;50.932;5.318;2023-09-07T03:41:09;17.60;1.40
18392;DHT22;9322;50.932;5.318;2023-09-07T03:43:35;17.50;1.40
18392;DHT22;9322;50.932;5.318;2023-09-07T03:46:00;17.40;1.40
18392;DHT22;9322;50.932;5.318;2023-09-07T03:48:26;17.40;1.40
18392;DHT22;9322;50.932;5.318;2023-09-07T03:50:52;17.40;1.40
18392;DHT22;9322;50.932;5.318;2023-09-07T03:53:17;17.50;1.40
18392;DHT22;9322;50.932;5.318;2023-09-07T03:55:44;17.50;1.40
18392;DHT22;9322;50.932;5.318;2023-09-07T03:58:11;17.50;1.40
18392;DHT22;9322;50.932;5.318;2023-09-07T04:00:40;17.50;1.40
18392;DHT22;9322;50.932;5.318;2023-09-07T04:03:07;17.50;1.40
18392;DHT22;9322;50.932;5.318;2023-09-07T04:05:33;17.60;1.40
18392;DHT22;9322;50.932;5.318;2023-09-07T04:08:00;17.60;1.40
18392;DHT22;9322;50.932;5.318;2023-09-07T04:10:27;17.50;1.40
18392;DHT22;9322;50.932;5.318;2023-09-07T04:12:52;17.40;1.40
18392;DHT22;9322;50.932;5.318;2023-09-07T04:15:18;17.50;1.40
18392;DHT22;9322;50.932;5.318;2023-09-07T04:17:44;17.40;1.40
18392;DHT22;9322;50.932;5.318;2023-09-07T04:20:09;17.30;1.40
18392;DHT22;9322;50.932;5.318;2023-09-07T04:22:40;17.30;1.40
18392;DHT22;9322;50.932;5.318;2023-09-07T04:25:06;17.20;1.40
18392;DHT22;9322;50.932;5.318;2023-09-07T04:27:32;17.20;1.40
18392;DHT22;9322;50.932;5.318;2023-09-07T04:29:58;17.10;1.40
18392;DHT22;9322;50.932;5.318;2023-09-07T04:32:23;17.00;1.40
18392;DHT22;9322;50.932;5.318;2023-09-07T04:34:56;16.90;1.40
18392;DHT22;9322;50.932;5.318;2023-09-07T04:37:22;16.80;1.40
18392;DHT22;9322;50.932;5.318;2023-09-07T04:39:51;16.80;1.40
18392;DHT22;9322;50.932;5.318;2023-09-07T04:42:21;16.70;1.40
18392;DHT22;9322;50.932;5.318;2023-09-07T04:44:47;16.60;1.40
18392;DHT22;9322;50.932;5.318;2023-09-07T04:47:13;16.60;1.40
18392;DHT22;9322;50.932;5.318;2023-09-07T04:49:40;16.50;1.40
18392;DHT22;9322;50.932;5.318;2023-09-07T04:52:06;16.50;1.40
18392;DHT22;9322;50.932;5.318;2023-09-07T04:54:32;16.40;1.40
18392;DHT22;9322;50.932;5.318;2023-09-07T04:56:58;16.40;1.40
18392;DHT22;9322;50.932;5.318;2023-09-07T04:59:23;16.30;1.40
18392;DHT22;9322;50.932;5.318;2023-09-07T05:01:49;16.30;1.40
18392;DHT22;9322;50.932;5.318;2023-09-07T05:04:15;16.30;1.40
18392;DHT22;9322;50.932;5.318;2023-09-07T05:06:40;16.30;1.40
18392;DHT22;9322;50.932;5.318;2023-09-07T05:09:07;16.30;1.40
18392;DHT22;9322;50.932;5.318;2023-09-07T05:11:33;16.30;1.40
18392;DHT22;9322;50.932;5.318;2023-09-07T05:14:02;16.20;1.40
18392;DHT22;9322;50.932;5.318;2023-09-07T05:16:28;16.10;1.40
18392;DHT22;9322;50.932;5.318;2023-09-07T05:18:54;16.20;1.40
18392;DHT22;9322;50.932;5.318;2023-09-07T05:21:19;16.20;1.40
18392;DHT22;9322;50.932;5.318;2023-09-07T05:23:46;16.20;1.40
18392;DHT22;9322;50.932;5.318;2023-09-07T05:26:12;16.50;1.40
18392;DHT22;9322;50.932;5.318;2023-09-07T05:28:40;17.10;1.40
18392;DHT22;9322;50.932;5.318;2023-09-07T05:31:07;17.80;1.40
18392;DHT22;9322;50.932;5.318;2023-09-07T05:33:33;18.30;1.40
18392;DHT22;9322;50.932;5.318;2023-09-07T05:35:59;19.20;1.40
18392;DHT22;9322;50.932;5.318;2023-09-07T05:38:27;20.00;1.40
18392;DHT22;9322;50.932;5.318;2023-09-07T05:40:52;20.80;1.40
18392;DHT22;9322;50.932;5.318;2023-09-07T05:43:20;21.30;1.40
18392;DHT22;9322;50.932;5.318;2023-09-07T05:45:46;22.00;1.40
18392;DHT22;9322;50.932;5.318;2023-09-07T05:48:12;22.50;1.40
18392;DHT22;9322;50.932;5.318;2023-09-07T05:50:40;23.00;1.40
18392;DHT22;9322;50.932;5.318;2023-09-07T05:53:05;23.50;1.40
18392;DHT22;9322;50.932;5.318;2023-09-07T05:55:31;23.90;1.40
18392;DHT22;9322;50.932;5.318;2023-09-07T05:57:57;24.60;1.40
18392;DHT22;9322;50.932;5.318;2023-09-07T06:00:23;24.90;1.40
18392;DHT22;9322;50.932;5.318;2023-09-07T06:02:49;25.30;1.40
18392;DHT22;9322;50.932;5.318;2023-09-07T06:05:15;26.10;1.40
18392;DHT22;9322;50.932;5.318;2023-09-07T06:07:42;26.70;1.40
18392;DHT22;9322;50.932;5.318;2023-09-07T06:10:08;27.30;1.40
18392;DHT22;9322;50.932;5.318;2023-09-07T06:12:34;27.50;1.40
18392;DHT22;9322;50.932;5.318;2023-09-07T06:15:00;27.40;1.40
18392;DHT22;9322;50.932;5.318;2023-09-07T06:17:27;27.20;1.40
18392;DHT22;9322;50.932;5.318;2023-09-07T06:19:54;27.10;1.40
18392;DHT22;9322;50.932;5.318;2023-09-07T06:22:20;27.20;1.40
18392;DHT22;9322;50.932;5.318;2023-09-07T06:24:45;27.40;1.40
18392;DHT22;9322;50.932;5.318;2023-09-07T06:27:11;27.20;1.40
18392;DHT22;9322;50.932;5.318;2023-09-07T06:29:37;27.20;1.40
18392;DHT22;9322;50.932;5.318;2023-09-07T06:32:02;27.80;1.40
18392;DHT22;9322;50.932;5.318;2023-09-07T06:34:28;27.40;1.40
18392;DHT22;9322;50.932;5.318;2023-09-07T06:36:54;27.30;1.40
18392;DHT22;9322;50.932;5.318;2023-09-07T06:39:19;28.00;1.40
18392;DHT22;9322;50.932;5.318;2023-09-07T06:41:46;28.40;1.40
18392;DHT22;9322;50.932;5.318;2023-09-07T06:44:12;29.00;1.40
18392;DHT22;9322;50.932;5.318;2023-09-07T06:46:37;29.30;1.40
18392;DHT22;9322;50.932;5.318;2023-09-07T06:49:03;29.20;1.40
18392;DHT22;9322;50.932;5.318;2023-09-07T06:51:30;29.50;1.40
18392;DHT22;9322;50.932;5.318;2023-09-07T06:53:56;29.90;1.40
18392;DHT22;9322;50.932;5.318;2023-09-07T06:56:22;30.30;1.40
18392;DHT22;9322;50.932;5.318;2023-09-07T06:58:48;30.60;1.40
18392;DHT22;9322;50.932;5.318;2023-09-07T07:01:13;31.50;1.40
18392;DHT22;9322;50.932;5.318;2023-09-07T07:03:39;32.20;1.40
18392;DHT22;9322;50.932;5.318;2023-09-07T07:06:05;32.10;1.40
18392;DHT22;9322;50.932;5.318;2023-09-07T07:08:30;31.90;1.40
18392;DHT22;9322;50.932;5.318;2023-09-07T07:10:56;31.90;1.40
18392;DHT22;9322;50.932;5.318;2023-09-07T07:13:21;32.50;1.40
18392;DHT22;9322;50.932;5.318;2023-09-07T07:15:47;33.00;1.40
18392;DHT22;9322;50.932;5.318;2023-09-07T07:18:13;33.40;1.40
18392;DHT22;9322;50.932;5.318;2023-09-07T07:20:41;33.10;1.40
18392;DHT22;9322;50.932;5.318;2023-09-07T07:23:07;33.10;1.40
18392;DHT22;9322;50.932;5.318;2023-09-07T07:25:33;32.80;1.40
18392;DHT22;9322;50.932;5.318;2023-09-07T07:28:06;32.80;1.40
18392;DHT22;9322;50.932;5.318;2023-09-07T07:30:37;32.90;1.40
18392;DHT22;9322;50.932;5.318;2023-09-07T07:33:04;32.70;1.40
18392;DHT22;9322;50.932;5.318;2023-09-07T07:35:36;33.40;1.40
18392;DHT22;9322;50.932;5.318;2023-09-07T07:38:03;33.30;1.40
18392;DHT22;9322;50.932;5.318;2023-09-07T07:40:30;33.40;1.40
18392;DHT22;9322;50.932;5.318;2023-09-07T07:42:55;33.60;1.40
18392;DHT22;9322;50.932;5.318;2023-09-07T07:45:21;33.20;1.40
18392;DHT22;9322;50.932;5.318;2023-09-07T07:47:48;33.00;1.40
18392;DHT22;9322;50.932;5.318;2023-09-07T07:50:14;33.30;1.40
18392;DHT22;9322;50.932;5.318;2023-09-07T07:52:40;33.90;1.40
18392;DHT22;9322;50.932;5.318;2023-09-07T07:55:06;34.20;1.40
18392;DHT22;9322;50.932;5.318;2023-09-07T07:57:32;34.00;1.40
18392;DHT22;9322;50.932;5.318;2023-09-07T07:59:58;33.90;1.40
18392;DHT22;9322;50.932;5.318;2023-09-07T08:02:24;34.30;1.40
18392;DHT22;9322;50.932;5.318;2023-09-07T08:04:49;34.30;1.40
18392;DHT22;9322;50.932;5.318;2023-09-07T08:07:16;34.10;1.40
18392;DHT22;9322;50.932;5.318;2023-09-07T08:09:42;33.80;1.40
18392;DHT22;9322;50.932;5.318;2023-09-07T08:12:08;33.20;1.40
18392;DHT22;9322;50.932;5.318;2023-09-07T08:14:33;33.30;1.40
18392;DHT22;9322;50.932;5.318;2023-09-07T08:17:00;32.90;1.40
18392;DHT22;9322;50.932;5.318;2023-09-07T08:19:27;32.60;1.40
18392;DHT22;9322;50.932;5.318;2023-09-07T08:21:55;33.20;1.40
18392;DHT22;9322;50.932;5.318;2023-09-07T08:24:21;33.30;1.40
18392;DHT22;9322;50.932;5.318;2023-09-07T08:26:46;33.20;1.40
18392;DHT22;9322;50.932;5.318;2023-09-07T08:29:17;33.60;1.40
18392;DHT22;9322;50.932;5.318;2023-09-07T08:31:46;34.10;1.40
18392;DHT22;9322;50.932;5.318;2023-09-07T08:34:14;34.50;1.40
18392;DHT22;9322;50.932;5.318;2023-09-07T08:36:44;34.60;1.40
18392;DHT22;9322;50.932;5.318;2023-09-07T08:39:12;34.20;1.40
18392;DHT22;9322;50.932;5.318;2023-09-07T08:41:42;33.30;1.40
18392;DHT22;9322;50.932;5.318;2023-09-07T08:44:12;33.90;1.40
18392;DHT22;9322;50.932;5.318;2023-09-07T08:46:40;34.10;1.40
18392;DHT22;9322;50.932;5.318;2023-09-07T08:49:06;34.40;1.40
18392;DHT22;9322;50.932;5.318;2023-09-07T08:51:32;34.60;1.40
18392;DHT22;9322;50.932;5.318;2023-09-07T08:53:58;35.20;1.40
18392;DHT22;9322;50.932;5.318;2023-09-07T08:56:24;35.20;1.40
18392;DHT22;9322;50.932;5.318;2023-09-07T08:58:50;35.90;1.40
18392;DHT22;9322;50.932;5.318;2023-09-07T09:01:19;35.80;1.40
18392;DHT22;9322;50.932;5.318;2023-09-07T09:03:48;36.40;1.40
18392;DHT22;9322;50.932;5.318;2023-09-07T09:06:14;36.70;1.40
18392;DHT22;9322;50.932;5.318;2023-09-07T09:08:53;36.40;1.40
18392;DHT22;9322;50.932;5.318;2023-09-07T09:11:19;36.60;1.40
18392;DHT22;9322;50.932;5.318;2023-09-07T09:13:46;37.80;1.40
18392;DHT22;9322;50.932;5.318;2023-09-07T09:16:13;37.60;1.40
18392;DHT22;9322;50.932;5.318;2023-09-07T09:18:50;37.00;1.40
18392;DHT22;9322;50.932;5.318;2023-09-07T09:21:18;37.20;1.40
18392;DHT22;9322;50.932;5.318;2023-09-07T09:23:53;37.30;1.40
18392;DHT22;9322;50.932;5.318;2023-09-07T09:26:20;37.70;1.40
18392;DHT22;9322;50.932;5.318;2023-09-07T09:28:46;38.20;1.40
18392;DHT22;9322;50.932;5.318;2023-09-07T09:31:13;38.50;1.40
18392;DHT22;9322;50.932;5.318;2023-09-07T09:33:40;39.00;1.40
18392;DHT22;9322;50.932;5.318;2023-09-07T09:36:07;39.70;1.40
18392;DHT22;9322;50.932;5.318;2023-09-07T09:38:33;40.40;1.40
18392;DHT22;9322;50.932;5.318;2023-09-07T09:41:00;39.50;1.40
18392;DHT22;9322;50.932;5.318;2023-09-07T09:43:26;38.60;1.40
18392;DHT22;9322;50.932;5.318;2023-09-07T09:45:53;38.30;1.40
18392;DHT22;9322;50.932;5.318;2023-09-07T09:48:19;38.20;1.40
18392;DHT22;9322;50.932;5.318;2023-09-07T09:50:48;38.00;1.40
18392;DHT22;9322;50.932;5.318;2023-09-07T09:53:16;38.30;1.40
18392;DHT22;9322;50.932;5.318;2023-09-07T09:55:45;37.60;1.40
18392;DHT22;9322;50.932;5.318;2023-09-07T09:58:15;38.50;1.40
18392;DHT22;9322;50.932;5.318;2023-09-07T10:01:01;39.30;1.40
18392;DHT22;9322;50.932;5.318;2023-09-07T10:03:41;39.00;1.40
18392;DHT22;9322;50.932;5.318;2023-09-07T10:06:17;39.00;1.40
18392;DHT22;9322;50.932;5.318;2023-09-07T10:08:59;39.40;1.40
18392;DHT22;9322;50.932;5.318;2023-09-07T10:11:32;39.90;1.40
18392;DHT22;9322;50.932;5.318;2023-09-07T10:14:00;40.50;1.40
18392;DHT22;9322;50.932;5.318;2023-09-07T10:16:26;40.30;1.40
18392;DHT22;9322;50.932;5.318;2023-09-07T10:18:53;39.70;1.40
18392;DHT22;9322;50.932;5.318;2023-09-07T10:21:18;39.00;1.40
18392;DHT22;9322;50.932;5.318;2023-09-07T10:23:45;38.50;1.40
18392;DHT22;9322;50.932;5.318;2023-09-07T10:28:38;39.30;1.40
18392;DHT22;9322;50.932;5.318;2023-09-07T10:33:38;38.80;1.40
18392;DHT22;9322;50.932;5.318;2023-09-07T10:36:05;38.90;1.40
18392;DHT22;9322;50.932;5.318;2023-09-07T10:38:34;39.00;1.40
18392;DHT22;9322;50.932;5.318;2023-09-07T10:41:02;38.50;1.40
18392;DHT22;9322;50.932;5.318;2023-09-07T10:43:29;38.90;1.40
18392;DHT22;9322;50.932;5.318;2023-09-07T10:45:56;39.10;1.40
18392;DHT22;9322;50.932;5.318;2023-09-07T10:48:27;38.10;1.40
18392;DHT22;9322;50.932;5.318;2023-09-07T10:50:54;37.80;1.40
18392;DHT22;9322;50.932;5.318;2023-09-07T10:53:30;38.90;1.40
18392;DHT22;9322;50.932;5.318;2023-09-07T10:56:03;37.80;1.40
18392;DHT22;9322;50.932;5.318;2023-09-07T10:58:34;36.60;1.40
18392;DHT22;9322;50.932;5.318;2023-09-07T11:01:00;36.90;1.40
18392;DHT22;9322;50.932;5.318;2023-09-07T11:03:27;38.00;1.40
18392;DHT22;9322;50.932;5.318;2023-09-07T11:08:30;39.70;1.40
18392;DHT22;9322;50.932;5.318;2023-09-07T11:10:56;39.50;1.40
18392;DHT22;9322;50.932;5.318;2023-09-07T11:13:24;40.10;1.40
18392;DHT22;9322;50.932;5.318;2023-09-07T11:15:54;41.00;1.40
18392;DHT22;9322;50.932;5.318;2023-09-07T11:18:21;41.40;1.40
18392;DHT22;9322;50.932;5.318;2023-09-07T11:20:48;41.40;1.40
18392;DHT22;9322;50.932;5.318;2023-09-07T11:23:13;40.60;1.40
18392;DHT22;9322;50.932;5.318;2023-09-07T11:25:39;39.90;1.40
18392;DHT22;9322;50.932;5.318;2023-09-07T11:28:06;40.00;1.40
18392;DHT22;9322;50.932;5.318;2023-09-07T11:30:33;40.60;1.40
18392;DHT22;9322;50.932;5.318;2023-09-07T11:33:07;40.70;1.40
18392;DHT22;9322;50.932;5.318;2023-09-07T11:35:34;40.40;1.40
18392;DHT22;9322;50.932;5.318;2023-09-07T11:38:01;39.80;1.40
18392;DHT22;9322;50.932;5.318;2023-09-07T11:40:27;41.00;1.40
18392;DHT22;9322;50.932;5.318;2023-09-07T11:42:52;41.30;1.40
18392;DHT22;9322;50.932;5.318;2023-09-07T11:45:18;41.20;1.40
18392;DHT22;9322;50.932;5.318;2023-09-07T11:47:45;41.40;1.40
18392;DHT22;9322;50.932;5.318;2023-09-07T11:50:11;41.60;1.40
18392;DHT22;9322;50.932;5.318;2023-09-07T11:52:37;41.10;1.40
18392;DHT22;9322;50.932;5.318;2023-09-07T11:55:03;41.30;1.40
18392;DHT22;9322;50.932;5.318;2023-09-07T11:57:29;40.80;1.40
18392;DHT22;9322;50.932;5.318;2023-09-07T11:59:55;40.10;1.40
18392;DHT22;9322;50.932;5.318;2023-09-07T12:02:21;40.10;1.40
18392;DHT22;9322;50.932;5.318;2023-09-07T12:04:47;39.80;1.40
18392;DHT22;9322;50.932;5.318;2023-09-07T12:07:16;39.40;1.40
18392;DHT22;9322;50.932;5.318;2023-09-07T12:09:42;39.20;1.40
18392;DHT22;9322;50.932;5.318;2023-09-07T12:12:08;38.70;1.40
18392;DHT22;9322;50.932;5.318;2023-09-07T12:14:36;38.30;1.40
18392;DHT22;9322;50.932;5.318;2023-09-07T12:17:01;37.90;1.40
18392;DHT22;9322;50.932;5.318;2023-09-07T12:19:27;37.30;1.40
18392;DHT22;9322;50.932;5.318;2023-09-07T12:21:53;36.10;1.40
18392;DHT22;9322;50.932;5.318;2023-09-07T12:24:19;35.20;1.40
18392;DHT22;9322;50.932;5.318;2023-09-07T12:26:44;34.30;1.40
18392;DHT22;9322;50.932;5.318;2023-09-07T12:29:11;33.50;1.40
18392;DHT22;9322;50.932;5.318;2023-09-07T12:31:37;33.30;1.40
18392;DHT22;9322;50.932;5.318;2023-09-07T12:34:02;33.00;1.40
18392;DHT22;9322;50.932;5.318;2023-09-07T12:36:30;32.80;1.40
18392;DHT22;9322;50.932;5.318;2023-09-07T12:38:56;32.40;1.40
18392;DHT22;9322;50.932;5.318;2023-09-07T12:41:28;32.40;1.40
18392;DHT22;9322;50.932;5.318;2023-09-07T12:43:54;32.70;1.40
18392;DHT22;9322;50.932;5.318;2023-09-07T12:46:19;32.90;1.40
18392;DHT22;9322;50.932;5.318;2023-09-07T12:48:45;32.70;1.40
18392;DHT22;9322;50.932;5.318;2023-09-07T12:51:11;32.60;1.40
18392;DHT22;9322;50.932;5.318;2023-09-07T12:53:37;32.90;1.40
18392;DHT22;9322;50.932;5.318;2023-09-07T12:56:03;33.00;1.40
18392;DHT22;9322;50.932;5.318;2023-09-07T12:58:28;32.90;1.40
18392;DHT22;9322;50.932;5.318;2023-09-07T13:00:54;32.90;1.40
18392;DHT22;9322;50.932;5.318;2023-09-07T13:03:20;32.60;1.40
18392;DHT22;9322;50.932;5.318;2023-09-07T13:05:46;32.40;1.40
18392;DHT22;9322;50.932;5.318;2023-09-07T13:08:12;32.60;1.40
18392;DHT22;9322;50.932;5.318;2023-09-07T13:10:37;32.90;1.40
18392;DHT22;9322;50.932;5.318;2023-09-07T13:13:04;32.80;1.40
18392;DHT22;9322;50.932;5.318;2023-09-07T13:15:29;32.70;1.40
18392;DHT22;9322;50.932;5.318;2023-09-07T13:17:55;32.30;1.40
18392;DHT22;9322;50.932;5.318;2023-09-07T13:20:21;32.20;1.40
18392;DHT22;9322;50.932;5.318;2023-09-07T13:22:47;31.60;1.40
18392;DHT22;9322;50.932;5.318;2023-09-07T13:25:13;31.60;1.40
18392;DHT22;9322;50.932;5.318;2023-09-07T13:27:39;31.80;1.40
18392;DHT22;9322;50.932;5.318;2023-09-07T13:30:05;31.90;1.40
18392;DHT22;9322;50.932;5.318;2023-09-07T13:32:33;31.80;1.40
18392;DHT22;9322;50.932;5.318;2023-09-07T13:35:00;31.60;1.40
18392;DHT22;9322;50.932;5.318;2023-09-07T13:37:25;31.60;1.40
18392;DHT22;9322;50.932;5.318;2023-09-07T13:39:51;31.60;1.40
18392;DHT22;9322;50.932;5.318;2023-09-07T13:42:17;31.60;1.40
18392;DHT22;9322;50.932;5.318;2023-09-07T13:44:42;31.70;1.40
18392;DHT22;9322;50.932;5.318;2023-09-07T13:47:11;31.70;1.40
18392;DHT22;9322;50.932;5.318;2023-09-07T13:49:36;31.90;1.40
18392;DHT22;9322;50.932;5.318;2023-09-07T13:52:02;31.80;1.40
18392;DHT22;9322;50.932;5.318;2023-09-07T13:54:28;31.70;1.40
18392;DHT22;9322;50.932;5.318;2023-09-07T13:56:54;31.40;1.40
18392;DHT22;9322;50.932;5.318;2023-09-07T13:59:20;31.40;1.40
18392;DHT22;9322;50.932;5.318;2023-09-07T14:01:46;31.50;1.40
18392;DHT22;9322;50.932;5.318;2023-09-07T14:04:11;31.70;1.40
18392;DHT22;9322;50.932;5.318;2023-09-07T14:06:37;31.80;1.40
18392;DHT22;9322;50.932;5.318;2023-09-07T14:09:03;31.70;1.40
18392;DHT22;9322;50.932;5.318;2023-09-07T14:11:29;31.70;1.40
18392;DHT22;9322;50.932;5.318;2023-09-07T14:13:56;31.70;1.40
18392;DHT22;9322;50.932;5.318;2023-09-07T14:16:22;31.60;1.40
18392;DHT22;9322;50.932;5.318;2023-09-07T14:18:48;31.50;1.40
18392;DHT22;9322;50.932;5.318;2023-09-07T14:21:15;31.50;1.40
18392;DHT22;9322;50.932;5.318;2023-09-07T14:23:41;31.40;1.40
18392;DHT22;9322;50.932;5.318;2023-09-07T14:26:08;31.40;1.40
18392;DHT22;9322;50.932;5.318;2023-09-07T14:28:34;31.20;1.40
18392;DHT22;9322;50.932;5.318;2023-09-07T14:31:00;31.40;1.40
18392;DHT22;9322;50.932;5.318;2023-09-07T14:33:29;31.50;1.40
18392;DHT22;9322;50.932;5.318;2023-09-07T14:35:55;31.60;1.40
18392;DHT22;9322;50.932;5.318;2023-09-07T14:38:21;31.30;1.40
18392;DHT22;9322;50.932;5.318;2023-09-07T14:40:49;31.10;1.40
18392;DHT22;9322;50.932;5.318;2023-09-07T14:43:15;31.20;1.40
18392;DHT22;9322;50.932;5.318;2023-09-07T14:45:43;31.20;1.40
18392;DHT22;9322;50.932;5.318;2023-09-07T14:48:09;31.00;1.40
18392;DHT22;9322;50.932;5.318;2023-09-07T14:50:34;31.10;1.40
18392;DHT22;9322;50.932;5.318;2023-09-07T14:53:00;31.30;1.40
18392;DHT22;9322;50.932;5.318;2023-09-07T14:55:26;31.30;1.40
18392;DHT22;9322;50.932;5.318;2023-09-07T14:57:51;31.40;1.40
18392;DHT22;9322;50.932;5.318;2023-09-07T15:00:17;31.20;1.40
18392;DHT22;9322;50.932;5.318;2023-09-07T15:02:43;31.20;1.40
18392;DHT22;9322;50.932;5.318;2023-09-07T15:05:08;31.00;1.40
18392;DHT22;9322;50.932;5.318;2023-09-07T15:07:34;31.20;1.40
18392;DHT22;9322;50.932;5.318;2023-09-07T15:10:00;31.30;1.40
18392;DHT22;9322;50.932;5.318;2023-09-07T15:12:26;31.30;1.40
18392;DHT22;9322;50.932;5.318;2023-09-07T15:14:52;31.40;1.40
18392;DHT22;9322;50.932;5.318;2023-09-07T15:17:18;31.30;1.40
18392;DHT22;9322;50.932;5.318;2023-09-07T15:19:43;31.40;1.40
18392;DHT22;9322;50.932;5.318;2023-09-07T15:22:09;31.40;1.40
18392;DHT22;9322;50.932;5.318;2023-09-07T15:24:35;31.30;1.40
18392;DHT22;9322;50.932;5.318;2023-09-07T15:27:13;31.30;1.40
18392;DHT22;9322;50.932;5.318;2023-09-07T15:29:40;31.20;1.40
18392;DHT22;9322;50.932;5.318;2023-09-07T15:32:06;31.30;1.40
18392;DHT22;9322;50.932;5.318;2023-09-07T15:34:32;31.30;1.40
18392;DHT22;9322;50.932;5.318;2023-09-07T15:37:00;31.20;1.40
18392;DHT22;9322;50.932;5.318;2023-09-07T15:39:26;31.20;1.40
18392;DHT22;9322;50.932;5.318;2023-09-07T15:41:51;31.10;1.40
18392;DHT22;9322;50.932;5.318;2023-09-07T15:44:19;31.00;1.40
18392;DHT22;9322;50.932;5.318;2023-09-07T15:46:45;31.00;1.40
18392;DHT22;9322;50.932;5.318;2023-09-07T15:49:11;31.00;1.40
18392;DHT22;9322;50.932;5.318;2023-09-07T15:51:36;31.00;1.40
18392;DHT22;9322;50.932;5.318;2023-09-07T15:54:02;31.00;1.40
18392;DHT22;9322;50.932;5.318;2023-09-07T15:56:28;31.00;1.40
18392;DHT22;9322;50.932;5.318;2023-09-07T15:58:53;31.10;1.40
18392;DHT22;9322;50.932;5.318;2023-09-07T16:01:19;31.20;1.40
18392;DHT22;9322;50.932;5.318;2023-09-07T16:03:45;31.00;1.40
18392;DHT22;9322;50.932;5.318;2023-09-07T16:06:10;31.10;1.40